createdAt,value
2019-06-10T00:01:48.093Z,3.47
2019-06-10T00:06:41.657Z,2.45
2019-06-10T00:11:35.076Z,3.12
2019-06-10T00:16:30.823Z,3.70
2019-06-10T00:21:23.446Z,4.03
2019-06-10T00:26:16.579Z,3.52
2019-06-10T00:31:11.458Z,3.87
2019-06-10T00:36:07.128Z,3.67
2019-06-10T00:41:03.935Z,4.05
2019-06-10T00:45:56.328Z,3.70
2019-06-10T00:50:55.835Z,4.30
2019-06-10T00:55:51.320Z,4.25
2019-06-10T01:00:44.233Z,4.53
2019-06-10T01:05:37.393Z,4.83
2019-06-10T01:15:31.248Z,4.37
2019-06-10T01:20:25.071Z,5.15
2019-06-10T01:25:18.289Z,4.30
2019-06-10T01:30:18.813Z,4.80
2019-06-10T01:35:08.487Z,4.47
2019-06-10T01:40:03.217Z,4.60
2019-06-10T01:44:56.452Z,5.10
2019-06-10T01:49:51.706Z,5.95
2019-06-10T01:54:44.818Z,5.22
2019-06-10T01:59:38.295Z,4.58
2019-06-10T02:04:32.636Z,4.67
2019-06-10T02:09:25.775Z,4.80
2019-06-10T02:14:20.356Z,4.85
2019-06-10T02:19:15.501Z,5.28
2019-06-10T02:24:08.720Z,6.03
2019-06-10T02:29:02.133Z,5.72
2019-06-10T02:33:55.527Z,4.97
2019-06-10T02:38:48.681Z,5.08
2019-06-10T02:43:44.014Z,4.97
2019-06-10T02:48:36.836Z,4.92
2019-06-10T02:53:35.563Z,4.92
2019-06-10T02:58:31.630Z,4.55
2019-06-10T03:03:32.807Z,4.90
2019-06-10T03:08:18.307Z,5.47
2019-06-10T03:13:12.690Z,4.95
2019-06-10T03:18:06.014Z,4.65
2019-06-10T03:22:59.227Z,5.58
2019-06-10T03:27:52.590Z,5.80
2019-06-10T03:32:47.492Z,6.03
2019-06-10T03:37:42.356Z,5.60
2019-06-10T03:42:35.664Z,5.22
2019-06-10T03:47:29.141Z,5.25
2019-06-10T03:52:24.058Z,6.08
2019-06-10T03:57:17.497Z,5.95
2019-06-10T04:02:12.748Z,5.53
2019-06-10T04:07:05.954Z,6.40
2019-06-10T04:11:59.095Z,5.78
2019-06-10T04:16:52.630Z,5.95
2019-06-10T04:21:45.821Z,6.53
2019-06-10T04:26:39.299Z,5.30
2019-06-10T04:31:33.047Z,6.85
2019-06-10T04:36:27.806Z,5.53
2019-06-10T04:41:23.436Z,5.90
2019-06-10T04:46:16.856Z,5.85
2019-06-10T04:51:10.068Z,5.80
2019-06-10T04:56:03.316Z,6.08
2019-06-10T05:00:56.459Z,6.08
2019-06-10T05:05:49.618Z,5.90
2019-06-10T05:10:43.007Z,5.25
2019-06-10T05:15:36.586Z,5.83
2019-06-10T05:20:48.564Z,6.10
2019-06-10T05:25:25.723Z,5.25
2019-06-10T05:30:20.082Z,5.92
2019-06-10T05:35:13.740Z,5.10
2019-06-10T05:40:07.162Z,5.70
2019-06-10T05:45:02.963Z,5.87
2019-06-10T05:49:55.606Z,6.47
2019-06-10T05:54:48.807Z,5.80
2019-06-10T05:59:43.257Z,5.42
2019-06-10T06:04:36.580Z,5.30
2019-06-10T06:09:33.520Z,5.64
2019-06-10T06:14:25.486Z,5.50
2019-06-10T06:19:19.044Z,5.25
2019-06-10T06:24:13.071Z,4.70
2019-06-10T06:29:06.609Z,4.70
2019-06-10T06:33:59.820Z,4.53
2019-06-10T06:38:53.538Z,4.30
2019-06-10T06:43:46.872Z,4.45
2019-06-10T06:48:40.986Z,4.92
2019-06-10T06:53:44.192Z,4.62
2019-06-10T06:58:32.301Z,3.85
2019-06-10T07:03:24.858Z,4.53
2019-06-10T07:08:18.067Z,3.65
2019-06-10T07:13:12.910Z,3.67
2019-06-10T07:18:06.271Z,3.85
2019-06-10T07:22:59.483Z,4.22
2019-06-10T07:27:52.820Z,4.62
2019-06-10T07:32:47.399Z,4.35
2019-06-10T07:37:44.524Z,4.12
2019-06-10T07:42:38.913Z,3.70
2019-06-10T07:47:34.161Z,4.00
2019-06-10T07:52:28.675Z,4.30
2019-06-10T07:57:22.620Z,3.77
2019-06-10T08:02:15.834Z,4.12
2019-06-10T08:07:09.511Z,4.20
2019-06-10T08:12:05.852Z,3.80
2019-06-10T08:16:57.591Z,4.08
2019-06-10T08:21:53.513Z,3.60
2019-06-10T08:26:45.926Z,3.87
2019-06-10T08:31:39.174Z,3.30
2019-06-10T08:36:33.334Z,3.27
2019-06-10T08:41:26.831Z,3.83
2019-06-10T08:46:22.354Z,3.60
2019-06-10T08:51:16.475Z,3.87
2019-06-10T08:56:09.888Z,4.35
2019-06-10T09:01:22.700Z,3.40
2019-06-10T09:06:15.840Z,3.87
2019-06-10T09:11:09.430Z,4.12
2019-06-10T09:16:14.678Z,3.90
2019-06-10T09:20:57.563Z,3.37
2019-06-10T09:25:54.509Z,4.05
2019-06-10T09:30:50.444Z,3.77
2019-06-10T09:35:44.121Z,4.15
2019-06-10T09:41:01.371Z,3.60
2019-06-10T09:45:50.402Z,3.27
2019-06-10T09:50:48.755Z,3.50
2019-06-10T09:55:38.945Z,3.50
2019-06-10T10:00:33.889Z,3.15
2019-06-10T10:05:27.145Z,3.20
2019-06-10T10:10:24.018Z,3.90
2019-06-10T10:15:29.849Z,2.87
2019-06-10T10:20:12.333Z,3.50
2019-06-10T10:25:06.344Z,3.92
2019-06-10T10:29:59.557Z,3.60
2019-06-10T10:34:56.424Z,3.77
2019-06-10T10:39:49.057Z,3.12
2019-06-10T10:44:46.241Z,3.40
2019-06-10T10:49:37.893Z,2.83
2019-06-10T10:54:35.943Z,2.72
2019-06-10T10:59:26.800Z,3.35
2019-06-10T11:04:22.627Z,2.60
2019-06-10T11:09:18.223Z,2.80
2019-06-10T11:14:14.974Z,3.30
2019-06-10T11:19:06.961Z,2.98
2019-06-10T11:24:04.456Z,3.02
2019-06-10T11:28:55.791Z,2.95
2019-06-10T11:33:51.257Z,3.80
2019-06-10T11:38:44.443Z,3.30
2019-06-10T11:43:37.656Z,3.50
2019-06-10T11:48:32.815Z,3.10
2019-06-10T11:53:28.655Z,4.20
2019-06-10T11:58:22.445Z,4.47
2019-06-10T12:03:15.464Z,4.10
2019-06-10T12:08:08.612Z,3.77
2019-06-10T12:13:06.977Z,3.72
2019-06-10T12:18:03.183Z,4.53
2019-06-10T12:22:56.285Z,3.25
2019-06-10T12:27:46.419Z,3.08
2019-06-10T12:32:42.558Z,3.50
2019-06-10T12:37:36.156Z,3.62
2019-06-10T12:42:29.304Z,3.62
2019-06-10T12:47:22.925Z,3.00
2019-06-10T12:52:18.105Z,3.22
2019-06-10T12:57:12.468Z,3.08
2019-06-10T13:02:17.738Z,3.55
2019-06-10T13:07:06.804Z,4.22
2019-06-10T13:11:59.749Z,3.40
2019-06-10T13:16:52.983Z,3.33
2019-06-10T13:21:46.132Z,2.87
2019-06-10T13:26:39.721Z,3.37
2019-06-10T13:31:33.783Z,2.70
2019-06-10T13:36:27.064Z,3.02
2019-06-10T13:41:22.785Z,3.00
2019-06-10T13:46:16.924Z,2.65
2019-06-10T13:51:14.888Z,2.62
2019-06-10T13:56:27.110Z,2.90
2019-06-10T14:01:04.593Z,2.60
2019-06-10T14:06:02.854Z,3.00
2019-06-10T14:11:07.305Z,2.90
2019-06-10T14:16:07.568Z,2.77
2019-06-10T14:21:05.238Z,3.12
2019-06-10T14:25:56.933Z,2.70
2019-06-10T14:30:53.561Z,3.30
2019-06-10T14:35:46.233Z,2.60
2019-06-10T14:40:39.996Z,2.98
2019-06-10T14:45:33.250Z,3.30
2019-06-10T14:50:26.777Z,2.80
2019-06-10T14:55:23.087Z,3.30
2019-06-10T15:00:17.970Z,2.92
2019-06-10T15:05:11.227Z,2.90
2019-06-10T15:10:07.448Z,3.02
2019-06-10T15:15:01.055Z,3.22
2019-06-10T15:19:54.203Z,4.40
2019-06-10T15:24:47.348Z,3.30
2019-06-10T15:29:43.005Z,3.30
2019-06-10T15:34:35.631Z,2.85
2019-06-10T15:39:29.126Z,2.92
2019-06-10T15:44:40.436Z,3.12
2019-06-10T15:49:19.349Z,3.55
2019-06-10T15:54:14.052Z,3.95
2019-06-10T15:59:19.733Z,3.52
2019-06-10T16:04:15.405Z,3.60
2019-06-10T16:09:08.595Z,3.52
2019-06-10T16:14:02.895Z,4.33
2019-06-10T16:18:56.585Z,4.15
2019-06-10T16:23:50.077Z,3.87
2019-06-10T16:28:43.219Z,3.98
2019-06-10T16:33:36.368Z,4.00
2019-06-10T16:38:29.508Z,4.85
2019-06-10T16:43:24.525Z,4.08
2019-06-10T16:48:17.592Z,4.70
2019-06-10T16:53:13.442Z,4.12
2019-06-10T16:58:08.345Z,4.10
2019-06-10T17:03:00.875Z,4.08
2019-06-10T17:07:54.093Z,4.10
2019-06-10T17:12:48.971Z,4.65
2019-06-10T17:17:42.260Z,4.12
2019-06-10T17:22:35.510Z,4.37
2019-06-10T17:27:29.656Z,3.65
2019-06-10T17:32:25.169Z,3.95
2019-06-10T17:37:18.280Z,4.28
2019-06-10T17:42:12.538Z,5.10
2019-06-10T17:47:05.944Z,3.80
2019-06-10T17:51:59.199Z,4.97
2019-06-10T17:56:52.676Z,4.45
2019-06-10T18:01:45.830Z,4.65
2019-06-10T18:06:39.052Z,4.83
2019-06-10T18:11:34.490Z,4.78
2019-06-10T18:16:28.258Z,4.40
2019-06-10T18:21:22.342Z,5.12
2019-06-10T18:26:15.730Z,5.03
2019-06-10T18:31:09.292Z,4.97
2019-06-10T18:36:04.696Z,4.67
2019-06-10T18:40:58.823Z,5.00
2019-06-10T18:45:53.295Z,4.12
2019-06-10T18:50:47.689Z,5.58
2019-06-10T18:55:43.622Z,4.28
2019-06-10T19:00:54.615Z,5.03
2019-06-10T19:05:33.624Z,4.83
2019-06-10T19:10:29.060Z,6.47
2019-06-10T19:15:22.375Z,5.43
2019-06-10T19:20:16.157Z,6.07
2019-06-10T19:25:09.572Z,5.30
2019-06-10T19:30:02.862Z,6.00
2019-06-10T19:34:56.109Z,5.55
2019-06-10T19:39:53.743Z,5.85
2019-06-10T19:44:46.002Z,6.15
2019-06-10T19:49:41.185Z,6.10
2019-06-10T19:54:35.016Z,6.62
2019-06-10T19:59:28.319Z,7.15
2019-06-10T20:04:22.641Z,7.53
2019-06-10T20:09:15.919Z,7.80
2019-06-10T20:14:09.409Z,8.60
2019-06-10T20:19:03.146Z,8.75
2019-06-10T20:23:56.418Z,8.33
2019-06-10T20:28:52.926Z,6.67
2019-06-10T20:33:44.781Z,7.12
2019-06-10T20:38:38.462Z,7.47
2019-06-10T20:43:32.816Z,7.22
2019-06-10T20:48:26.201Z,6.92
2019-06-10T20:53:19.426Z,7.22
2019-06-10T20:58:12.846Z,7.72
2019-06-10T21:03:06.151Z,7.70
2019-06-10T21:08:02.982Z,9.68
2019-06-10T21:12:56.300Z,9.30
2019-06-10T21:17:50.743Z,7.62
2019-06-10T21:22:45.877Z,6.55
2019-06-10T21:27:41.275Z,4.95
2019-06-10T21:32:34.604Z,4.58
2019-06-10T21:37:28.422Z,4.55
2019-06-10T21:42:22.877Z,4.70
2019-06-10T21:47:16.514Z,4.20
2019-06-10T21:52:09.731Z,4.17
2019-06-10T21:57:02.998Z,4.83
2019-06-10T22:01:56.477Z,3.85
2019-06-10T22:06:49.693Z,4.08
2019-06-10T22:11:43.876Z,4.20
2019-06-10T22:16:37.013Z,4.40
2019-06-10T22:21:32.486Z,5.05
2019-06-10T22:26:25.088Z,4.85
2019-06-10T22:31:23.027Z,4.78
2019-06-10T22:36:13.356Z,4.53
2019-06-10T22:41:06.831Z,3.90
2019-06-10T22:45:59.979Z,4.40
2019-06-10T22:50:53.356Z,3.67
2019-06-10T22:55:46.535Z,4.62
2019-06-10T23:00:39.968Z,4.08
2019-06-10T23:05:33.496Z,4.10
2019-06-10T23:10:26.707Z,3.80
2019-06-10T23:15:20.577Z,3.58
2019-06-10T23:20:14.112Z,3.50
2019-06-10T23:25:07.320Z,3.65
2019-06-10T23:30:03.143Z,3.85
2019-06-10T23:34:57.872Z,3.55
2019-06-10T23:39:50.801Z,3.52
2019-06-10T23:44:44.567Z,4.10
2019-06-10T23:49:38.143Z,3.58
2019-06-10T23:54:32.279Z,3.62
2019-06-10T23:59:25.528Z,3.50
